createdAt,value
2022-10-09T00:04:41.102Z,9.4
2022-10-09T00:33:44.295Z,9.2
2022-10-09T01:02:52.655Z,8.9
2022-10-09T01:31:45.292Z,8.6
2022-10-09T02:00:42.959Z,8.4
2022-10-09T02:29:51.930Z,8.2
2022-10-09T02:59:02.551Z,7.9
2022-10-09T03:28:04.875Z,7.7
2022-10-09T03:57:14.496Z,7.4
2022-10-09T04:26:36.146Z,7.2
2022-10-09T04:55:54.342Z,6.9
2022-10-09T05:25:05.104Z,6.8
2022-10-09T05:54:20.119Z,6.7
2022-10-09T06:23:21.300Z,6.7
2022-10-09T06:52:36.169Z,6.7
2022-10-09T07:21:48.612Z,7.3
2022-10-09T07:51:05.850Z,8.4
2022-10-09T08:20:27.253Z,9.9
2022-10-09T08:49:42.768Z,11.7
2022-10-09T09:19:10.766Z,13
2022-10-09T09:48:36.325Z,14.2
2022-10-09T10:18:02.899Z,14.2
2022-10-09T10:47:19.187Z,17.2
2022-10-09T11:16:53.384Z,24.6
2022-10-09T11:46:20.473Z,24.9
2022-10-09T12:15:47.386Z,23
2022-10-09T12:45:02.934Z,20.5
2022-10-09T13:14:10.061Z,19.4
2022-10-09T13:43:17.750Z,19.2
2022-10-09T14:12:15.515Z,19.8
2022-10-09T14:41:38.391Z,19.8
2022-10-09T15:10:17.032Z,19
2022-10-09T15:39:41.213Z,18.9
2022-10-09T16:09:00.059Z,19.1
2022-10-09T16:38:21.818Z,17.8
2022-10-09T17:07:41.697Z,16.6
2022-10-09T17:36:57.889Z,16
2022-10-09T18:06:19.935Z,15.5
2022-10-09T18:35:39.143Z,15.2
2022-10-09T19:05:00.010Z,14.6
2022-10-09T19:34:19.218Z,13.8
2022-10-09T20:03:35.847Z,13.8
2022-10-09T20:32:59.977Z,13.6
2022-10-09T21:01:39.052Z,13.4
2022-10-09T21:30:53.065Z,13.2
2022-10-09T22:00:09.236Z,13
2022-10-09T22:29:29.158Z,12.7
2022-10-09T22:58:46.033Z,12.2
2022-10-09T23:28:03.426Z,12.2
2022-10-09T23:57:13.125Z,12.2
